createdAt,value
2017-06-27T00:00:05.841Z,3.7
2017-06-27T00:00:21.566Z,3.8
2017-06-27T00:00:37.169Z,3.6
2017-06-27T00:00:53.282Z,3.3
2017-06-27T00:01:08.829Z,3.1
2017-06-27T00:01:24.038Z,3.1
2017-06-27T00:01:39.454Z,3.1
2017-06-27T00:01:55.162Z,3.1
2017-06-27T00:02:10.371Z,3.2
2017-06-27T00:02:25.888Z,3.0
2017-06-27T00:02:41.592Z,2.9
2017-06-27T00:02:57.206Z,3.0
2017-06-27T00:03:12.644Z,3.1
2017-06-27T00:03:28.255Z,3.1
2017-06-27T00:03:43.862Z,3.3
2017-06-27T00:03:59.277Z,3.2
2017-06-27T00:04:14.814Z,2.9
2017-06-27T00:04:30.228Z,3.1
2017-06-27T00:04:45.742Z,2.9
2017-06-27T00:05:01.172Z,3.0
2017-06-27T00:05:16.584Z,3.2
2017-06-27T00:05:31.993Z,3.1
2017-06-27T00:05:47.305Z,3.3
2017-06-27T00:06:02.925Z,3.6
2017-06-27T00:06:18.534Z,3.9
2017-06-27T00:06:34.248Z,3.9
2017-06-27T00:06:49.562Z,3.9
2017-06-27T00:07:04.982Z,3.9
2017-06-27T00:07:20.701Z,3.6
2017-06-27T00:07:36.212Z,3.5
2017-06-27T00:07:51.512Z,3.2
2017-06-27T00:08:07.321Z,3.1
2017-06-27T00:08:22.834Z,3.0
2017-06-27T00:08:38.342Z,3.1
2017-06-27T00:08:53.670Z,3.5
2017-06-27T00:09:09.476Z,3.5
2017-06-27T00:09:24.789Z,3.6
2017-06-27T00:09:40.295Z,3.6
2017-06-27T00:09:55.903Z,3.5
2017-06-27T00:10:11.106Z,3.6
2017-06-27T00:10:27.022Z,3.7
2017-06-27T00:10:42.449Z,3.6
2017-06-27T00:10:57.964Z,3.6
2017-06-27T00:11:13.474Z,3.8
2017-06-27T00:11:29.189Z,3.5
2017-06-27T00:11:45.092Z,3.4
2017-06-27T00:12:00.598Z,3.9
2017-06-27T00:12:16.017Z,3.7
2017-06-27T00:12:31.841Z,3.8
2017-06-27T00:12:47.254Z,3.4
2017-06-27T00:13:02.853Z,3.4
2017-06-27T00:13:18.266Z,3.4
2017-06-27T00:13:33.874Z,3.6
2017-06-27T00:13:49.591Z,3.4
2017-06-27T00:14:05.097Z,3.5
2017-06-27T00:14:20.695Z,3.4
2017-06-27T00:14:36.106Z,3.4
2017-06-27T00:14:51.712Z,3.4
2017-06-27T00:15:07.021Z,3.3
2017-06-27T00:15:22.336Z,3.4
2017-06-27T00:15:37.745Z,3.4
2017-06-27T00:15:53.454Z,3.5
2017-06-27T00:16:08.979Z,3.5
2017-06-27T00:16:27.089Z,3.4
2017-06-27T00:16:42.400Z,3.1
2017-06-27T00:16:58.132Z,2.9
2017-06-27T00:17:13.628Z,3.2
2017-06-27T00:17:29.342Z,3.2
2017-06-27T00:17:44.868Z,3.2
2017-06-27T00:18:00.279Z,3.3
2017-06-27T00:18:15.891Z,3.5
2017-06-27T00:18:31.446Z,3.6
2017-06-27T00:18:47.268Z,3.7
2017-06-27T00:19:02.879Z,3.6
2017-06-27T00:19:18.589Z,3.3
2017-06-27T00:19:34.000Z,3.5
2017-06-27T00:19:49.512Z,3.2
2017-06-27T00:20:05.023Z,3.1
2017-06-27T00:20:20.632Z,3.1
2017-06-27T00:20:36.139Z,3.1
2017-06-27T00:20:51.854Z,3.2
2017-06-27T00:21:07.268Z,3.3
2017-06-27T00:21:22.591Z,3.3
2017-06-27T00:21:38.307Z,3.1
2017-06-27T00:21:53.815Z,3.3
2017-06-27T00:22:09.127Z,3.2
2017-06-27T00:22:24.639Z,3.1
2017-06-27T00:22:40.149Z,3.3
2017-06-27T00:22:55.664Z,3.2
2017-06-27T00:23:11.277Z,3.3
2017-06-27T00:23:26.892Z,3.5
2017-06-27T00:23:42.490Z,3.1
2017-06-27T00:23:58.207Z,3.0
2017-06-27T00:24:13.715Z,3.0
2017-06-27T00:24:29.226Z,3.0
2017-06-27T00:24:44.639Z,3.2
2017-06-27T00:24:59.946Z,3.3
2017-06-27T00:25:15.561Z,3.5
2017-06-27T00:25:31.067Z,3.8
2017-06-27T00:25:46.384Z,4.4
2017-06-27T00:26:01.993Z,4.6
2017-06-27T00:26:18.179Z,4.4
2017-06-27T00:26:33.485Z,4.1
2017-06-27T00:26:49.700Z,3.3
2017-06-27T00:27:05.515Z,3.3
2017-06-27T00:27:21.020Z,3.3
2017-06-27T00:27:36.435Z,3.3
2017-06-27T00:27:52.346Z,3.3
2017-06-27T00:28:07.869Z,3.1
2017-06-27T00:28:23.581Z,3.1
2017-06-27T00:28:38.992Z,3.0
2017-06-27T00:28:54.404Z,3.0
2017-06-27T00:29:09.716Z,3.1
2017-06-27T00:29:25.127Z,3.3
2017-06-27T00:29:40.638Z,3.6
2017-06-27T00:29:56.447Z,3.6
2017-06-27T00:30:11.954Z,3.5
2017-06-27T00:30:27.464Z,3.6
2017-06-27T00:30:42.986Z,3.5
2017-06-27T00:30:58.394Z,3.6
2017-06-27T00:31:13.899Z,3.6
2017-06-27T00:31:29.510Z,3.3
2017-06-27T00:31:44.923Z,3.3
2017-06-27T00:32:00.233Z,3.3
2017-06-27T00:32:15.660Z,3.1
2017-06-27T00:32:31.272Z,3.3
2017-06-27T00:32:46.980Z,3.2
2017-06-27T00:33:02.190Z,3.3
2017-06-27T00:33:17.604Z,3.2
2017-06-27T00:33:32.920Z,3.4
2017-06-27T00:33:48.338Z,3.4
2017-06-27T00:34:04.052Z,3.1
2017-06-27T00:34:19.588Z,3.2
2017-06-27T00:34:34.764Z,3.0
2017-06-27T00:34:50.477Z,3.0
2017-06-27T00:35:05.995Z,3.1
2017-06-27T00:35:21.600Z,3.3
2017-06-27T00:35:37.015Z,3.5
2017-06-27T00:35:52.425Z,3.8
2017-06-27T00:36:07.736Z,3.7
2017-06-27T00:36:23.353Z,3.3
2017-06-27T00:36:38.963Z,3.3
2017-06-27T00:36:54.470Z,3.1
2017-06-27T00:37:10.100Z,3.2
2017-06-27T00:37:25.510Z,3.4
2017-06-27T00:37:41.123Z,3.4
2017-06-27T00:37:56.638Z,3.2
2017-06-27T00:38:11.958Z,3.4
2017-06-27T00:38:27.464Z,3.3
2017-06-27T00:38:42.876Z,3.4
2017-06-27T00:38:58.201Z,3.4
2017-06-27T00:39:13.820Z,3.4
2017-06-27T00:39:29.334Z,3.5
2017-06-27T00:39:44.746Z,3.7
2017-06-27T00:40:00.155Z,3.9
2017-06-27T00:40:15.860Z,3.8
2017-06-27T00:40:31.271Z,3.9
2017-06-27T00:40:46.593Z,3.6
2017-06-27T00:41:02.003Z,3.5
2017-06-27T00:41:17.617Z,3.7
2017-06-27T00:41:33.352Z,3.7
2017-06-27T00:41:49.050Z,4.0
2017-06-27T00:42:04.564Z,3.9
2017-06-27T00:42:20.082Z,3.9
2017-06-27T00:42:35.486Z,3.8
2017-06-27T00:42:51.094Z,3.6
2017-06-27T00:43:06.803Z,3.6
2017-06-27T00:43:22.331Z,3.6
2017-06-27T00:43:37.841Z,3.5
2017-06-27T00:43:53.152Z,3.4
2017-06-27T00:44:08.660Z,3.4
2017-06-27T00:44:24.199Z,3.4
2017-06-27T00:44:39.599Z,3.5
2017-06-27T00:44:55.020Z,3.7
2017-06-27T00:45:10.349Z,3.8
2017-06-27T00:45:25.981Z,4.0
2017-06-27T00:45:41.389Z,4.0
2017-06-27T00:45:56.917Z,4.0
2017-06-27T00:46:12.424Z,3.7
2017-06-27T00:46:27.835Z,3.4
2017-06-27T00:46:43.552Z,3.7
2017-06-27T00:46:58.966Z,3.7
2017-06-27T00:47:14.584Z,3.7
2017-06-27T00:47:30.272Z,3.7
2017-06-27T00:47:45.776Z,3.7
2017-06-27T00:48:01.491Z,3.6
2017-06-27T00:48:16.806Z,3.7
2017-06-27T00:48:32.528Z,4.0
2017-06-27T00:48:48.138Z,4.3
2017-06-27T00:49:03.648Z,4.4
2017-06-27T00:49:19.059Z,4.5
2017-06-27T00:49:34.469Z,4.1
2017-06-27T00:49:49.983Z,4.2
2017-06-27T00:50:05.396Z,4.1
2017-06-27T00:50:20.807Z,4.1
2017-06-27T00:50:36.117Z,4.0
2017-06-27T00:50:51.732Z,3.9
2017-06-27T00:51:07.250Z,4.0
2017-06-27T00:51:22.856Z,4.0
2017-06-27T00:51:38.365Z,4.3
2017-06-27T00:51:53.993Z,4.1
2017-06-27T00:52:09.500Z,4.2
2017-06-27T00:52:25.010Z,4.2
2017-06-27T00:52:40.423Z,4.0
2017-06-27T00:52:56.243Z,4.0
2017-06-27T00:53:11.655Z,4.1
2017-06-27T00:53:27.060Z,3.9
2017-06-27T00:53:42.673Z,3.9
2017-06-27T00:53:58.189Z,4.3
2017-06-27T00:54:13.702Z,4.0
2017-06-27T00:54:29.118Z,4.1
2017-06-27T00:54:44.622Z,3.9
2017-06-27T00:55:00.040Z,3.5
2017-06-27T00:55:15.652Z,3.8
2017-06-27T00:55:31.073Z,3.5
2017-06-27T00:55:46.483Z,3.4
2017-06-27T00:56:01.798Z,3.4
2017-06-27T00:56:18.906Z,3.3
2017-06-27T00:56:34.416Z,3.9
2017-06-27T00:56:50.027Z,4.1
2017-06-27T00:57:05.540Z,4.7
2017-06-27T00:57:20.953Z,4.6
2017-06-27T00:57:36.361Z,4.4
2017-06-27T00:57:51.575Z,4.3
2017-06-27T00:58:07.185Z,3.5
2017-06-27T00:58:22.596Z,3.4
2017-06-27T00:58:38.400Z,3.3
2017-06-27T00:58:53.918Z,3.4
2017-06-27T00:59:09.529Z,3.6
2017-06-27T00:59:24.836Z,3.9
2017-06-27T00:59:40.251Z,4.0
2017-06-27T00:59:55.663Z,3.9
2017-06-27T01:00:11.169Z,3.7
2017-06-27T01:00:26.682Z,3.5
2017-06-27T01:00:42.084Z,3.3
2017-06-27T01:00:57.497Z,3.8
2017-06-27T01:01:13.113Z,4.0
2017-06-27T01:01:29.023Z,4.2
2017-06-27T01:01:44.531Z,4.4
2017-06-27T01:02:00.038Z,3.9
2017-06-27T01:02:15.353Z,4.0
2017-06-27T01:02:30.958Z,3.9
2017-06-27T01:02:46.370Z,3.8
2017-06-27T01:03:01.887Z,3.7
2017-06-27T01:03:17.198Z,3.9
2017-06-27T01:03:32.614Z,3.8
2017-06-27T01:03:48.118Z,3.9
2017-06-27T01:04:03.526Z,4.2
2017-06-27T01:04:19.238Z,4.1
2017-06-27T01:04:34.546Z,4.1
2017-06-27T01:04:49.856Z,4.0
2017-06-27T01:05:05.171Z,3.9
2017-06-27T01:05:20.373Z,3.8
2017-06-27T01:05:35.887Z,4.0
2017-06-27T01:05:51.297Z,4.2
2017-06-27T01:06:06.607Z,3.9
2017-06-27T01:06:22.317Z,3.9
2017-06-27T01:06:37.828Z,3.8
2017-06-27T01:06:53.533Z,3.5
2017-06-27T01:07:09.046Z,3.7
2017-06-27T01:07:24.358Z,3.9
2017-06-27T01:07:39.663Z,3.7
2017-06-27T01:07:55.179Z,4.0
2017-06-27T01:08:10.694Z,3.9
2017-06-27T01:08:26.104Z,3.8
2017-06-27T01:08:41.537Z,4.3
2017-06-27T01:08:57.141Z,3.9
2017-06-27T01:09:12.654Z,4.2
2017-06-27T01:09:28.266Z,4.0
2017-06-27T01:09:43.774Z,4.0
2017-06-27T01:09:59.283Z,4.3
2017-06-27T01:10:14.702Z,4.0
2017-06-27T01:10:30.119Z,4.0
2017-06-27T01:10:45.826Z,3.7
2017-06-27T01:11:01.339Z,3.9
2017-06-27T01:11:16.749Z,4.3
2017-06-27T01:11:32.165Z,4.4
2017-06-27T01:11:47.777Z,4.0
2017-06-27T01:12:03.288Z,4.0
2017-06-27T01:12:18.702Z,3.8
2017-06-27T01:12:34.107Z,3.9
2017-06-27T01:12:49.623Z,4.0
2017-06-27T01:13:05.138Z,4.1
2017-06-27T01:13:20.754Z,4.3
2017-06-27T01:13:36.067Z,4.4
2017-06-27T01:13:51.483Z,4.3
2017-06-27T01:14:06.994Z,4.4
2017-06-27T01:14:22.385Z,4.0
2017-06-27T01:14:37.791Z,3.7
2017-06-27T01:14:53.208Z,3.8
2017-06-27T01:15:08.621Z,3.7
2017-06-27T01:15:23.833Z,3.8
2017-06-27T01:15:39.150Z,4.0
2017-06-27T01:15:54.666Z,4.3
2017-06-27T01:16:10.369Z,4.6
2017-06-27T01:16:25.778Z,4.7
2017-06-27T01:16:41.413Z,4.6
2017-06-27T01:16:56.903Z,4.4
2017-06-27T01:17:12.311Z,4.3
2017-06-27T01:17:27.629Z,4.1
2017-06-27T01:17:42.940Z,4.1
2017-06-27T01:17:58.448Z,4.2
2017-06-27T01:18:13.957Z,4.3
2017-06-27T01:18:29.273Z,4.6
2017-06-27T01:18:44.888Z,4.7
2017-06-27T01:19:00.195Z,4.2
2017-06-27T01:19:15.722Z,4.2
2017-06-27T01:19:31.330Z,4.0
2017-06-27T01:19:46.852Z,4.0
2017-06-27T01:20:02.358Z,4.2
2017-06-27T01:20:17.667Z,4.4
2017-06-27T01:20:33.181Z,4.3
2017-06-27T01:20:48.700Z,4.1
2017-06-27T01:21:04.012Z,4.1
2017-06-27T01:21:19.326Z,3.9
2017-06-27T01:21:34.934Z,4.0
2017-06-27T01:21:50.346Z,4.1
2017-06-27T01:22:05.856Z,4.4
2017-06-27T01:22:21.471Z,4.4
2017-06-27T01:22:37.179Z,4.6
2017-06-27T01:22:52.592Z,4.7
2017-06-27T01:23:08.002Z,4.5
2017-06-27T01:23:23.714Z,4.4
2017-06-27T01:23:39.321Z,4.2
2017-06-27T01:23:54.928Z,4.3
2017-06-27T01:24:10.439Z,4.2
2017-06-27T01:24:25.870Z,3.9
2017-06-27T01:24:41.384Z,3.7
2017-06-27T01:24:56.794Z,3.5
2017-06-27T01:25:12.402Z,3.7
2017-06-27T01:25:28.012Z,4.2
2017-06-27T01:25:43.621Z,4.9
2017-06-27T01:25:59.033Z,4.8
2017-06-27T01:26:14.645Z,4.8
2017-06-27T01:26:29.956Z,4.9
2017-06-27T01:26:45.675Z,4.3
2017-06-27T01:27:01.279Z,4.6
2017-06-27T01:27:16.788Z,4.6
2017-06-27T01:27:32.503Z,4.1
2017-06-27T01:27:48.009Z,4.3
2017-06-27T01:28:03.624Z,3.9
2017-06-27T01:28:19.035Z,3.8
2017-06-27T01:28:34.347Z,3.9
2017-06-27T01:28:49.984Z,4.3
2017-06-27T01:29:05.295Z,4.3
2017-06-27T01:29:20.708Z,4.2
2017-06-27T01:29:36.213Z,4.3
2017-06-27T01:29:51.720Z,4.5
2017-06-27T01:30:07.134Z,4.5
2017-06-27T01:30:22.545Z,4.9
2017-06-27T01:30:38.054Z,4.8
2017-06-27T01:30:53.560Z,4.4
2017-06-27T01:31:08.968Z,4.7
2017-06-27T01:31:24.479Z,4.6
2017-06-27T01:31:40.086Z,4.9
2017-06-27T01:31:55.499Z,4.9
2017-06-27T01:32:10.911Z,4.5
2017-06-27T01:32:26.320Z,4.1
2017-06-27T01:32:42.029Z,3.7
2017-06-27T01:32:57.637Z,3.8
2017-06-27T01:33:12.946Z,3.9
2017-06-27T01:33:28.565Z,4.2
2017-06-27T01:33:43.973Z,4.3
2017-06-27T01:33:59.483Z,4.5
2017-06-27T01:34:14.993Z,4.4
2017-06-27T01:34:30.515Z,4.5
2017-06-27T01:34:46.123Z,4.4
2017-06-27T01:35:01.435Z,4.3
2017-06-27T01:35:16.846Z,4.3
2017-06-27T01:35:32.262Z,4.4
2017-06-27T01:35:47.673Z,5.0
2017-06-27T01:36:03.180Z,4.8
2017-06-27T01:36:18.485Z,5.0
2017-06-27T01:36:33.800Z,5.0
2017-06-27T01:36:49.317Z,4.6
2017-06-27T01:37:04.735Z,4.6
2017-06-27T01:37:20.241Z,4.6
2017-06-27T01:37:35.868Z,4.4
2017-06-27T01:37:51.470Z,4.4
2017-06-27T01:38:06.780Z,4.5
2017-06-27T01:38:22.186Z,4.4
2017-06-27T01:38:37.794Z,4.6
2017-06-27T01:38:53.201Z,4.7
2017-06-27T01:39:09.015Z,5.2
2017-06-27T01:39:24.430Z,5.6
2017-06-27T01:39:39.938Z,5.4
2017-06-27T01:39:55.343Z,5.5
2017-06-27T01:40:10.755Z,5.0
2017-06-27T01:40:26.672Z,4.9
2017-06-27T01:40:42.180Z,4.8
2017-06-27T01:40:57.795Z,4.5
2017-06-27T01:41:13.399Z,4.3
2017-06-27T01:41:29.114Z,4.1
2017-06-27T01:41:44.426Z,4.5
2017-06-27T01:41:59.937Z,4.4
2017-06-27T01:42:15.244Z,4.7
2017-06-27T01:42:30.447Z,4.7
2017-06-27T01:42:45.760Z,4.3
2017-06-27T01:43:01.397Z,4.4
2017-06-27T01:43:16.901Z,4.1
2017-06-27T01:43:32.407Z,4.0
2017-06-27T01:43:47.819Z,4.1
2017-06-27T01:44:03.241Z,4.1
2017-06-27T01:44:18.939Z,4.2
2017-06-27T01:44:34.349Z,4.3
2017-06-27T01:44:49.862Z,4.6
2017-06-27T01:45:05.471Z,4.9
2017-06-27T01:45:20.981Z,4.9
2017-06-27T01:45:36.589Z,5.1
2017-06-27T01:45:52.105Z,4.6
2017-06-27T01:46:07.521Z,4.6
2017-06-27T01:46:25.516Z,4.5
2017-06-27T01:46:41.132Z,4.4
2017-06-27T01:46:56.745Z,4.4
2017-06-27T01:47:12.151Z,4.8
2017-06-27T01:47:27.564Z,4.7
2017-06-27T01:47:43.080Z,4.8
2017-06-27T01:47:58.582Z,4.8
2017-06-27T01:48:13.994Z,4.6
2017-06-27T01:48:29.402Z,5.0
2017-06-27T01:48:44.908Z,4.9
2017-06-27T01:49:00.317Z,4.8
2017-06-27T01:49:15.824Z,4.4
2017-06-27T01:49:31.238Z,4.1
2017-06-27T01:49:46.648Z,4.3
2017-06-27T01:50:02.064Z,4.8
2017-06-27T01:50:17.705Z,4.8
2017-06-27T01:50:33.096Z,5.0
2017-06-27T01:50:48.509Z,4.8
2017-06-27T01:51:03.831Z,5.1
2017-06-27T01:51:19.332Z,5.1
2017-06-27T01:51:34.741Z,4.9
2017-06-27T01:51:50.458Z,5.0
2017-06-27T01:52:06.072Z,4.4
2017-06-27T01:52:21.580Z,4.6
2017-06-27T01:52:36.985Z,4.9
2017-06-27T01:52:52.396Z,4.7
2017-06-27T01:53:07.709Z,4.6
2017-06-27T01:53:23.119Z,4.3
2017-06-27T01:53:38.438Z,4.4
2017-06-27T01:53:53.848Z,4.7
2017-06-27T01:54:09.358Z,4.7
2017-06-27T01:54:24.666Z,4.7
2017-06-27T01:54:39.982Z,4.8
2017-06-27T01:54:55.593Z,4.7
2017-06-27T01:55:11.108Z,4.7
2017-06-27T01:55:26.530Z,5.0
2017-06-27T01:55:41.946Z,4.9
2017-06-27T01:55:57.354Z,4.7
2017-06-27T01:56:12.774Z,4.6
2017-06-27T01:56:28.076Z,4.4
2017-06-27T01:56:43.488Z,4.5
2017-06-27T01:56:59.200Z,4.8
2017-06-27T01:57:14.510Z,4.5
2017-06-27T01:57:29.920Z,4.7
2017-06-27T01:57:45.228Z,4.9
2017-06-27T01:58:00.640Z,4.9
2017-06-27T01:58:16.151Z,5.0
2017-06-27T01:58:31.660Z,5.0
2017-06-27T01:58:47.275Z,4.6
2017-06-27T01:59:02.586Z,4.6
2017-06-27T01:59:17.997Z,4.6
2017-06-27T01:59:33.307Z,4.3
2017-06-27T01:59:48.624Z,4.3
2017-06-27T02:00:04.226Z,4.8
2017-06-27T02:00:19.839Z,4.8
2017-06-27T02:00:35.350Z,4.9
2017-06-27T02:00:50.762Z,5.2
2017-06-27T02:01:06.274Z,4.7
2017-06-27T02:01:21.681Z,4.7
2017-06-27T02:01:37.296Z,4.6
2017-06-27T02:01:53.011Z,4.2
2017-06-27T02:02:08.414Z,5.0
2017-06-27T02:02:23.923Z,5.0
2017-06-27T02:02:39.433Z,5.1
2017-06-27T02:02:55.251Z,4.9
2017-06-27T02:03:11.062Z,4.1
2017-06-27T02:03:26.570Z,4.1
2017-06-27T02:03:42.083Z,4.3
2017-06-27T02:03:57.493Z,4.3
2017-06-27T02:04:12.709Z,4.9
2017-06-27T02:04:28.129Z,4.9
2017-06-27T02:04:43.541Z,4.8
2017-06-27T02:04:59.053Z,4.8
2017-06-27T02:05:14.568Z,4.5
2017-06-27T02:05:29.871Z,4.4
2017-06-27T02:05:45.080Z,4.4
2017-06-27T02:06:00.392Z,4.2
2017-06-27T02:06:16.959Z,4.4
2017-06-27T02:06:32.234Z,4.4
2017-06-27T02:06:47.639Z,4.4
2017-06-27T02:07:03.146Z,4.5
2017-06-27T02:07:18.455Z,4.4
2017-06-27T02:07:33.866Z,4.4
2017-06-27T02:07:49.478Z,4.4
2017-06-27T02:08:04.783Z,4.4
2017-06-27T02:08:20.408Z,4.5
2017-06-27T02:08:36.019Z,4.5
2017-06-27T02:08:51.523Z,4.5
2017-06-27T02:09:06.934Z,4.7
2017-06-27T02:09:22.359Z,4.6
2017-06-27T02:09:37.862Z,4.8
2017-06-27T02:09:53.267Z,4.5
2017-06-27T02:10:08.576Z,4.4
2017-06-27T02:10:23.884Z,4.3
2017-06-27T02:10:39.294Z,4.3
2017-06-27T02:10:55.105Z,4.7
2017-06-27T02:11:10.513Z,4.7
2017-06-27T02:11:26.224Z,4.6
2017-06-27T02:11:41.537Z,4.5
2017-06-27T02:11:56.947Z,4.1
2017-06-27T02:12:12.451Z,4.5
2017-06-27T02:12:28.464Z,4.6
2017-06-27T02:12:43.775Z,4.8
2017-06-27T02:12:59.284Z,4.6
2017-06-27T02:13:14.598Z,4.8
2017-06-27T02:13:30.117Z,4.5
2017-06-27T02:13:45.626Z,4.6
2017-06-27T02:14:00.932Z,5.3
2017-06-27T02:14:16.444Z,5.0
2017-06-27T02:14:31.756Z,5.1
2017-06-27T02:14:47.372Z,5.1
2017-06-27T02:15:03.080Z,4.4
2017-06-27T02:15:18.597Z,4.6
2017-06-27T02:15:34.202Z,4.6
2017-06-27T02:15:49.516Z,4.7
2017-06-27T02:16:04.924Z,4.8
2017-06-27T02:16:20.434Z,4.9
2017-06-27T02:16:36.049Z,5.0
2017-06-27T02:16:51.470Z,5.0
2017-06-27T02:17:07.082Z,5.1
2017-06-27T02:17:22.790Z,4.7
2017-06-27T02:17:38.202Z,5.2
2017-06-27T02:17:53.810Z,5.4
2017-06-27T02:18:09.114Z,5.3
2017-06-27T02:18:24.628Z,5.4
2017-06-27T02:18:40.239Z,5.4
2017-06-27T02:18:55.847Z,5.7
2017-06-27T02:19:11.564Z,5.9
2017-06-27T02:19:26.969Z,5.6
2017-06-27T02:19:42.279Z,4.9
2017-06-27T02:19:57.594Z,4.8
2017-06-27T02:20:12.902Z,4.6
2017-06-27T02:20:28.214Z,4.6
2017-06-27T02:20:43.626Z,5.0
2017-06-27T02:20:59.137Z,5.1
2017-06-27T02:21:14.846Z,5.2
2017-06-27T02:21:30.365Z,5.9
2017-06-27T02:21:45.873Z,5.4
2017-06-27T02:22:01.382Z,5.1
2017-06-27T02:22:17.091Z,4.8
2017-06-27T02:22:32.801Z,4.3
2017-06-27T02:22:48.215Z,4.2
2017-06-27T02:23:03.823Z,4.5
2017-06-27T02:23:19.331Z,4.8
2017-06-27T02:23:34.843Z,4.8
2017-06-27T02:23:50.154Z,4.6
2017-06-27T02:24:05.564Z,4.5
2017-06-27T02:24:21.462Z,4.5
2017-06-27T02:24:36.867Z,4.7
2017-06-27T02:24:52.174Z,5.0
2017-06-27T02:25:07.881Z,4.9
2017-06-27T02:25:23.391Z,5.1
2017-06-27T02:25:38.802Z,4.8
2017-06-27T02:25:54.315Z,5.1
2017-06-27T02:26:09.629Z,5.2
2017-06-27T02:26:25.044Z,5.2
2017-06-27T02:26:40.661Z,5.3
2017-06-27T02:26:55.972Z,5.1
2017-06-27T02:27:11.283Z,5.1
2017-06-27T02:27:26.892Z,5.0
2017-06-27T02:27:42.301Z,4.8
2017-06-27T02:27:57.711Z,5.2
2017-06-27T02:28:13.523Z,5.3
2017-06-27T02:28:29.031Z,5.3
2017-06-27T02:28:44.652Z,5.3
2017-06-27T02:28:59.965Z,5.1
2017-06-27T02:29:15.474Z,4.8
2017-06-27T02:29:31.190Z,4.8
2017-06-27T02:29:46.710Z,4.6
2017-06-27T02:30:02.124Z,4.2
2017-06-27T02:30:17.530Z,4.5
2017-06-27T02:30:33.137Z,4.5
2017-06-27T02:30:48.643Z,4.9
2017-06-27T02:31:03.966Z,5.0
2017-06-27T02:31:19.464Z,5.2
2017-06-27T02:31:35.176Z,5.3
2017-06-27T02:31:50.686Z,5.2
2017-06-27T02:32:06.199Z,5.3
2017-06-27T02:32:21.711Z,5.3
2017-06-27T02:32:37.125Z,5.6
2017-06-27T02:32:52.432Z,5.2
2017-06-27T02:33:07.942Z,5.1
2017-06-27T02:33:23.756Z,4.9
2017-06-27T02:33:39.368Z,4.5
2017-06-27T02:33:54.872Z,5.3
2017-06-27T02:34:10.379Z,5.7
2017-06-27T02:34:25.796Z,5.8
2017-06-27T02:34:41.197Z,5.9
2017-06-27T02:34:56.907Z,5.7
2017-06-27T02:35:12.520Z,5.6
2017-06-27T02:35:28.129Z,5.5
2017-06-27T02:35:43.437Z,5.7
2017-06-27T02:35:58.842Z,5.1
2017-06-27T02:36:14.249Z,5.2
2017-06-27T02:36:29.758Z,5.1
2017-06-27T02:36:45.268Z,4.5
2017-06-27T02:37:00.785Z,4.5
2017-06-27T02:37:16.294Z,4.6
2017-06-27T02:37:31.706Z,4.7
2017-06-27T02:37:47.014Z,5.2
2017-06-27T02:38:02.721Z,5.7
2017-06-27T02:38:17.940Z,5.6
2017-06-27T02:38:33.249Z,5.6
2017-06-27T02:38:48.661Z,5.8
2017-06-27T02:39:04.069Z,5.5
2017-06-27T02:39:19.583Z,5.3
2017-06-27T02:39:35.087Z,5.3
2017-06-27T02:39:50.505Z,5.1
2017-06-27T02:40:05.912Z,4.9
2017-06-27T02:40:21.224Z,5.0
2017-06-27T02:40:36.640Z,5.0
2017-06-27T02:40:52.357Z,5.1
2017-06-27T02:41:07.967Z,5.2
2017-06-27T02:41:23.375Z,5.1
2017-06-27T02:41:39.184Z,5.6
2017-06-27T02:41:54.796Z,5.9
2017-06-27T02:42:10.204Z,5.7
2017-06-27T02:42:25.516Z,6.0
2017-06-27T02:42:41.127Z,5.3
2017-06-27T02:42:56.459Z,5.0
2017-06-27T02:43:11.971Z,5.1
2017-06-27T02:43:27.281Z,5.0
2017-06-27T02:43:42.896Z,5.4
2017-06-27T02:43:58.414Z,5.1
2017-06-27T02:44:13.826Z,6.0
2017-06-27T02:44:29.442Z,6.3
2017-06-27T02:44:44.845Z,6.3
2017-06-27T02:45:00.578Z,6.3
2017-06-27T02:45:15.986Z,5.3
2017-06-27T02:45:31.501Z,4.7
2017-06-27T02:45:46.913Z,4.6
2017-06-27T02:46:02.628Z,4.9
2017-06-27T02:46:19.536Z,5.2
2017-06-27T02:46:35.158Z,5.5
2017-06-27T02:46:50.468Z,5.5
2017-06-27T02:47:06.081Z,5.8
2017-06-27T02:47:21.489Z,5.9
2017-06-27T02:47:36.905Z,6.2
2017-06-27T02:47:52.312Z,6.5
2017-06-27T02:48:08.023Z,6.1
2017-06-27T02:48:23.333Z,6.1
2017-06-27T02:48:38.943Z,5.9
2017-06-27T02:48:54.360Z,5.2
2017-06-27T02:49:09.766Z,5.2
2017-06-27T02:49:24.973Z,5.0
2017-06-27T02:49:40.481Z,5.1
2017-06-27T02:49:56.092Z,5.1
2017-06-27T02:50:11.697Z,5.2
2017-06-27T02:50:27.210Z,5.2
2017-06-27T02:50:42.834Z,4.8
2017-06-27T02:50:58.342Z,5.6
2017-06-27T02:51:13.852Z,5.6
2017-06-27T02:51:29.366Z,5.8
2017-06-27T02:51:44.683Z,6.2
2017-06-27T02:52:00.398Z,5.5
2017-06-27T02:52:15.804Z,6.0
2017-06-27T02:52:31.316Z,5.8
2017-06-27T02:52:46.827Z,5.7
2017-06-27T02:53:02.441Z,5.7
2017-06-27T02:53:17.956Z,5.8
2017-06-27T02:53:33.369Z,5.6
2017-06-27T02:53:49.183Z,5.7
2017-06-27T02:54:04.688Z,5.8
2017-06-27T02:54:20.140Z,5.4
2017-06-27T02:54:36.015Z,5.4
2017-06-27T02:54:51.530Z,5.5
2017-06-27T02:55:06.942Z,5.0
2017-06-27T02:55:22.453Z,5.2
2017-06-27T02:55:38.365Z,5.2
2017-06-27T02:55:53.681Z,5.2
2017-06-27T02:56:09.091Z,5.2
2017-06-27T02:56:24.713Z,5.6
2017-06-27T02:56:40.124Z,5.7
2017-06-27T02:56:55.639Z,5.6
2017-06-27T02:57:10.949Z,6.3
2017-06-27T02:57:26.263Z,6.3
2017-06-27T02:57:41.674Z,6.4
2017-06-27T02:57:57.188Z,6.3
2017-06-27T02:58:12.793Z,5.9
2017-06-27T02:58:28.313Z,5.4
2017-06-27T02:58:43.616Z,5.3
2017-06-27T02:58:59.136Z,5.3
2017-06-27T02:59:14.651Z,5.0
2017-06-27T02:59:30.061Z,5.2
2017-06-27T02:59:45.568Z,5.3
2017-06-27T03:00:00.881Z,5.4
2017-06-27T03:00:16.098Z,5.5
2017-06-27T03:00:31.514Z,5.8
2017-06-27T03:00:47.023Z,6.9
2017-06-27T03:01:02.634Z,7.3
2017-06-27T03:01:18.136Z,7.3
2017-06-27T03:01:33.851Z,6.9
2017-06-27T03:01:49.263Z,5.9
2017-06-27T03:02:04.976Z,5.6
2017-06-27T03:02:20.492Z,5.4
2017-06-27T03:02:36.205Z,5.3
2017-06-27T03:02:51.626Z,5.0
2017-06-27T03:03:07.059Z,5.3
2017-06-27T03:03:22.546Z,5.5
2017-06-27T03:03:38.156Z,5.6
2017-06-27T03:03:53.571Z,5.8
2017-06-27T03:04:09.185Z,5.6
2017-06-27T03:04:24.703Z,5.5
2017-06-27T03:04:40.214Z,5.3
2017-06-27T03:04:55.734Z,5.1
2017-06-27T03:05:11.249Z,5.6
2017-06-27T03:05:26.563Z,5.9
2017-06-27T03:05:41.976Z,5.6
2017-06-27T03:05:57.686Z,5.6
2017-06-27T03:06:13.202Z,5.3
2017-06-27T03:06:28.420Z,4.8
2017-06-27T03:06:44.132Z,5.3
2017-06-27T03:06:59.538Z,5.4
2017-06-27T03:07:15.056Z,5.5
2017-06-27T03:07:30.568Z,5.8
2017-06-27T03:07:46.282Z,5.6
2017-06-27T03:08:01.591Z,5.5
2017-06-27T03:08:17.305Z,5.5
2017-06-27T03:08:33.021Z,5.6
2017-06-27T03:08:48.431Z,5.7
2017-06-27T03:09:03.941Z,5.8
2017-06-27T03:09:19.659Z,5.4
2017-06-27T03:09:35.072Z,5.3
2017-06-27T03:09:50.488Z,5.1
2017-06-27T03:10:05.800Z,5.3
2017-06-27T03:10:21.414Z,5.4
2017-06-27T03:10:37.025Z,5.0
2017-06-27T03:10:52.543Z,5.4
2017-06-27T03:11:07.859Z,4.9
2017-06-27T03:11:23.472Z,4.9
2017-06-27T03:11:38.884Z,5.3
2017-06-27T03:11:54.298Z,5.0
2017-06-27T03:12:09.706Z,5.8
2017-06-27T03:12:25.523Z,6.1
2017-06-27T03:12:41.037Z,6.2
2017-06-27T03:12:56.350Z,6.2
2017-06-27T03:13:11.664Z,6.0
2017-06-27T03:13:27.174Z,5.7
2017-06-27T03:13:42.587Z,5.5
2017-06-27T03:13:57.997Z,5.2
2017-06-27T03:14:13.711Z,5.3
2017-06-27T03:14:29.024Z,5.3
2017-06-27T03:14:44.434Z,5.6
2017-06-27T03:14:59.946Z,5.8
2017-06-27T03:15:15.365Z,5.9
2017-06-27T03:15:30.979Z,5.9
2017-06-27T03:15:46.490Z,5.3
2017-06-27T03:16:02.199Z,5.7
2017-06-27T03:16:17.810Z,5.4
2017-06-27T03:16:33.125Z,5.7
2017-06-27T03:16:48.542Z,5.5
2017-06-27T03:17:04.104Z,5.0
2017-06-27T03:17:19.614Z,5.1
2017-06-27T03:17:35.124Z,5.3
2017-06-27T03:17:50.641Z,5.2
2017-06-27T03:18:05.949Z,5.5
2017-06-27T03:18:21.365Z,5.5
2017-06-27T03:18:36.778Z,5.3
2017-06-27T03:18:52.294Z,5.1
2017-06-27T03:19:07.605Z,5.2
2017-06-27T03:19:23.219Z,5.3
2017-06-27T03:19:38.628Z,6.1
2017-06-27T03:19:54.041Z,6.5
2017-06-27T03:20:09.450Z,6.2
2017-06-27T03:20:25.467Z,6.3
2017-06-27T03:20:40.781Z,5.9
2017-06-27T03:20:56.388Z,5.8
2017-06-27T03:21:11.805Z,5.9
2017-06-27T03:21:27.216Z,5.5
2017-06-27T03:21:42.734Z,5.2
2017-06-27T03:21:58.346Z,5.1
2017-06-27T03:22:13.861Z,5.4
2017-06-27T03:22:29.477Z,5.5
2017-06-27T03:22:44.989Z,5.7
2017-06-27T03:23:00.598Z,5.7
2017-06-27T03:23:16.010Z,5.3
2017-06-27T03:23:31.624Z,5.8
2017-06-27T03:23:46.839Z,5.7
2017-06-27T03:24:02.352Z,5.9
2017-06-27T03:24:17.769Z,5.9
2017-06-27T03:24:33.283Z,5.3
2017-06-27T03:24:48.491Z,5.4
2017-06-27T03:25:04.019Z,5.3
2017-06-27T03:25:19.450Z,5.7
2017-06-27T03:25:35.067Z,5.7
2017-06-27T03:25:50.577Z,5.4
2017-06-27T03:26:06.300Z,5.4
2017-06-27T03:26:21.612Z,5.0
2017-06-27T03:26:37.329Z,5.3
2017-06-27T03:26:52.741Z,5.5
2017-06-27T03:27:08.061Z,5.3
2017-06-27T03:27:23.670Z,5.6
2017-06-27T03:27:39.492Z,5.4
2017-06-27T03:27:55.046Z,5.4
2017-06-27T03:28:10.659Z,6.2
2017-06-27T03:28:25.977Z,6.1
2017-06-27T03:28:41.488Z,5.9
2017-06-27T03:28:56.905Z,6.3
2017-06-27T03:29:12.318Z,5.8
2017-06-27T03:29:28.038Z,5.6
2017-06-27T03:29:43.452Z,5.8
2017-06-27T03:29:58.766Z,5.9
2017-06-27T03:30:14.268Z,5.9
2017-06-27T03:30:30.092Z,5.9
2017-06-27T03:30:45.600Z,6.3
2017-06-27T03:31:01.321Z,6.1
2017-06-27T03:31:16.744Z,6.0
2017-06-27T03:31:32.162Z,5.9
2017-06-27T03:31:47.907Z,5.4
2017-06-27T03:32:03.255Z,5.1
2017-06-27T03:32:19.369Z,5.1
2017-06-27T03:32:34.780Z,5.6
2017-06-27T03:32:50.197Z,5.9
2017-06-27T03:33:05.621Z,6.1
2017-06-27T03:33:21.134Z,6.2
2017-06-27T03:33:36.347Z,6.0